Flight Track Log - Related Links

Times and Time Zones

All times are in EDT time to prevent confusion due to time zone crossing. See the CMP205 flight status page for this flight to view local times or setup timezone preferences in your user account.

Time Position Orientation Groundspeed Altitude Reporting Facility
EDT Latitude Longitude Course Direction KTS MPH feet Rate Location/Type
Mon 05:07:22 PM 9.0440 -79.2670 55° Northeast 263 303 4,700  Level FlightAware ADS-B
Mon 05:08:07 PM 9.0090 -79.2210 128° Southeast 278 320 6,400 1,891 Climbing FlightAware ADS-B
Mon 05:10:00 PM 8.8843 -79.0628 129° Southeast  Level Estimated
Mon 05:10:07 PM 8.9180 -79.0920 129° Southeast 290 334 9,900  Level FlightAware ADS-B
Mon 05:10:42 PM 8.8860 -79.0500 128° Southeast 315 362 10,800 635 Climbing FlightAware ADS-B
Mon 05:11:32 PM 8.8500 -78.9990 126° Southeast 315 362 10,800 2,047 Level FlightAware ADS-B
Mon 05:12:07 PM 8.8020 -78.9370 128° Southeast 323 372 13,700 4,160 Climbing FlightAware ADS-B
Mon 05:12:47 PM 8.7570 -78.8800 129° Southeast 368 423 16,000 2,580 Climbing FlightAware ADS-B
Mon 05:13:47 PM 8.6920 -78.7950 128° Southeast 377 434 18,000 1,980 Climbing FlightAware ADS-B
Mon 05:14:27 PM 8.6480 -78.7380 128° Southeast 386 444 19,300 1,835 Climbing FlightAware ADS-B
Mon 05:15:12 PM 8.6020 -78.6770 127° Southeast 391 450 20,600 1,320 Climbing FlightAware ADS-B
Mon 05:16:07 PM 8.5410 -78.5930 126° Southeast 402 463 21,500 568 Climbing FlightAware ADS-B
Mon 05:16:47 PM 8.5040 -78.5410 126° Southeast 402 463 21,500  Level FlightAware ADS-B
Mon 05:17:27 PM 8.4660 -78.4900 127° Southeast 402 463 21,500  Level FlightAware ADS-B
Mon 05:18:17 PM 8.4200 -78.4250 126° Southeast 402 463 21,500  Level FlightAware ADS-B
Mon 05:18:57 PM 8.3830 -78.3730 126° Southeast 402 463 21,500  Level FlightAware ADS-B
Mon 05:19:37 PM 8.3460 -78.3210 126° Southeast 402 463 21,500 Level FlightAware ADS-B
Mon 05:22:00 PM 8.1876 -78.1217 129° Southeast  Level Estimated
Mon 05:23:00 PM 8.1211 -78.0382 129° Southeast  Level Estimated
Mon 05:24:00 PM 8.0546 -77.9546 129° Southeast  Level Estimated
Mon 05:25:00 PM 7.9881 -77.8711 129° Southeast  Level Estimated
Mon 05:26:00 PM 7.9216 -77.7876 129° Southeast  Level Estimated
Mon 05:27:00 PM 7.8550 -77.7042 129° Southeast  Level Estimated
Mon 05:28:00 PM 7.7884 -77.6208 129° Southeast  Level Estimated
Mon 05:29:00 PM 7.7218 -77.5374 129° Southeast  Level Estimated
Mon 05:30:00 PM 7.6553 -77.4540 129° Southeast  Level Estimated
Mon 05:31:00 PM 7.5886 -77.3706 129° Southeast  Level Estimated
Mon 05:32:00 PM 7.5220 -77.2873 129° Southeast  Level Estimated
Mon 05:33:00 PM 7.4553 -77.2040 129° Southeast  Level Estimated
Mon 05:34:00 PM 7.3887 -77.1208 129° Southeast  Level Estimated
Mon 05:35:00 PM 7.3220 -77.0375 129° Southeast  Level Estimated
Mon 05:36:00 PM 7.2553 -76.9543 129° Southeast  Level Estimated
Mon 05:37:00 PM 7.1886 -76.8711 129° Southeast  Level Estimated
Mon 05:38:00 PM 7.1219 -76.7879 129° Southeast  Level Estimated
Mon 05:39:00 PM 7.0551 -76.7048 129° Southeast  Level Estimated
Mon 05:40:00 PM 6.9884 -76.6216 129° Southeast  Level Estimated
Mon 05:41:00 PM 6.9216 -76.5385 129° Southeast  Level Estimated
Mon 05:42:00 PM 6.8548 -76.4555 129° Southeast  Level Estimated
Mon 05:43:00 PM 6.7880 -76.3724 129° Southeast  Level Estimated
Mon 05:44:00 PM 6.7212 -76.2894 129° Southeast  Level Estimated
Mon 05:45:00 PM 6.6544 -76.2064 129° Southeast  Level Estimated
Mon 05:46:00 PM 6.5875 -76.1234 129° Southeast  Level Estimated
Mon 05:47:00 PM 6.5207 -76.0404 129° Southeast  Level Estimated
Mon 05:48:00 PM 6.4538 -75.9575 129° Southeast  Level Estimated
Mon 05:49:00 PM 6.3869 -75.8746 129° Southeast  Level Estimated
Mon 05:50:00 PM 6.3200 -75.7917 129° Southeast  Level Estimated
Mon 05:51:00 PM 6.2531 -75.7088 129° Southeast  Level Estimated
Mon 05:52:00 PM 6.1862 -75.6259 129° Southeast  Level Estimated
Mon 05:53:00 PM 6.1193 -75.5431 129° Southeast  Level Estimated
Mon 05:54:00 PM 6.0523 -75.4603 129° Southeast  Level Estimated
Mon 05:55:00 PM 5.9854 -75.3775 129° Southeast  Level Estimated
Mon 05:56:00 PM 5.9184 -75.2947 129° Southeast  Level Estimated
Mon 05:57:00 PM 5.8514 -75.2120 129° Southeast  Level Estimated
Mon 05:58:00 PM 5.7844 -75.1292 129° Southeast  Level Estimated
Mon 05:59:00 PM 5.7174 -75.0465 129° Southeast  Level Estimated
Mon 06:00:00 PM 5.6504 -74.9639 129° Southeast  Level Estimated
Mon 06:01:00 PM 5.5834 -74.8812 129° Southeast  Level Estimated
Mon 06:02:00 PM 5.5163 -74.7985 129° Southeast  Level Estimated
Mon 06:03:00 PM 5.4493 -74.7159 129° Southeast  Level Estimated
Mon 06:04:00 PM 5.3822 -74.6333 129° Southeast  Level Estimated
Mon 06:05:00 PM 5.3151 -74.5507 129° Southeast  Level Estimated
Mon 06:06:00 PM 5.2481 -74.4681 129° Southeast  Level Estimated
Mon 06:07:00 PM 5.1810 -74.3855 129° Southeast  Level Estimated
Mon 06:08:00 PM 5.1138 -74.3030 129° Southeast  Level Estimated
Mon 06:09:00 PM 5.0467 -74.2204 129° Southeast  Level Estimated
Mon 06:10:00 PM 4.9796 -74.1379 129° Southeast  Level Estimated
Mon 06:11:00 PM 4.9124 -74.0554 129° Southeast  Level Estimated
Mon 06:12:00 PM 4.8453 -73.9730 129° Southeast  Level Estimated
Mon 06:13:00 PM 4.7781 -73.8905 129° Southeast  Level Estimated
Mon 06:14:00 PM 4.7110 -73.8080 129° Southeast  Level Estimated
Mon 06:15:00 PM 4.6438 -73.7256 129° Southeast  Level Estimated
Mon 06:16:00 PM 4.5766 -73.6432 129° Southeast  Level Estimated
Mon 06:17:00 PM 4.5094 -73.5608 129° Southeast  Level Estimated
Mon 06:18:00 PM 4.4422 -73.4784 129° Southeast  Level Estimated
Mon 06:19:00 PM 4.3750 -73.3960 129° Southeast  Level Estimated
Mon 06:20:00 PM 4.3077 -73.3137 129° Southeast  Level Estimated
Mon 06:21:00 PM 4.2405 -73.2314 129° Southeast  Level Estimated
Mon 06:22:00 PM 4.1733 -73.1490 129° Southeast  Level Estimated
Mon 06:23:00 PM 4.1060 -73.0667 129° Southeast  Level Estimated
Mon 06:24:00 PM 4.0388 -72.9844 129° Southeast  Level Estimated
Mon 06:25:00 PM 3.9715 -72.9021 129° Southeast  Level Estimated
Mon 06:26:00 PM 3.9042 -72.8199 129° Southeast  Level Estimated
Mon 06:27:00 PM 3.8369 -72.7376 129° Southeast  Level Estimated
Mon 06:28:00 PM 3.7696 -72.6554 129° Southeast  Level Estimated
Mon 06:29:00 PM 3.7023 -72.5731 129° Southeast  Level Estimated
Mon 06:30:00 PM 3.6350 -72.4909 129° Southeast  Level Estimated
Mon 06:31:00 PM 3.5677 -72.4087 129° Southeast  Level Estimated
Mon 06:32:00 PM 3.5004 -72.3265 129° Southeast  Level Estimated
Mon 06:33:00 PM 3.4331 -72.2443 129° Southeast  Level Estimated
Mon 06:34:00 PM 3.3657 -72.1622 129° Southeast  Level Estimated
Mon 06:35:00 PM 3.2984 -72.0800 129° Southeast  Level Estimated
Mon 06:36:00 PM 3.2310 -71.9979 129° Southeast  Level Estimated
Mon 06:37:00 PM 3.1637 -71.9157 129° Southeast  Level Estimated
Mon 06:38:00 PM 3.0963 -71.8336 129° Southeast  Level Estimated
Mon 06:39:00 PM 3.0289 -71.7515 129° Southeast  Level Estimated
Mon 06:40:00 PM 2.9616 -71.6694 129° Southeast  Level Estimated
Mon 06:41:00 PM 2.8942 -71.5873 129° Southeast  Level Estimated
Mon 06:42:00 PM 2.8268 -71.5052 129° Southeast  Level Estimated
Mon 06:43:00 PM 2.7594 -71.4231 129° Southeast  Level Estimated
Mon 06:44:00 PM 2.6920 -71.3410 129° Southeast  Level Estimated
Mon 06:45:00 PM 2.6246 -71.2590 129° Southeast  Level Estimated
Mon 06:46:00 PM 2.5572 -71.1769 129° Southeast  Level Estimated
Mon 06:47:00 PM 2.4898 -71.0949 129° Southeast  Level Estimated
Mon 06:48:00 PM 2.4223 -71.0128 129° Southeast  Level Estimated
Mon 06:49:00 PM 2.3549 -70.9308 129° Southeast  Level Estimated
Mon 06:50:00 PM 2.2875 -70.8488 129° Southeast  Level Estimated
Mon 06:51:00 PM 2.2200 -70.7668 129° Southeast  Level Estimated
Mon 06:52:00 PM 2.1526 -70.6848 129° Southeast  Level Estimated
Mon 06:53:00 PM 2.0852 -70.6028 129° Southeast  Level Estimated
Mon 06:54:00 PM 2.0177 -70.5208 129° Southeast  Level Estimated
Mon 06:55:00 PM 1.9503 -70.4388 129° Southeast  Level Estimated
Mon 06:56:00 PM 1.8828 -70.3569 129° Southeast  Level Estimated
Mon 06:57:00 PM 1.8153 -70.2749 129° Southeast  Level Estimated
Mon 06:58:00 PM 1.7479 -70.1929 129° Southeast  Level Estimated
Mon 06:59:00 PM 1.6804 -70.1110 129° Southeast  Level Estimated
Mon 07:00:00 PM 1.6129 -70.0290 129° Southeast  Level Estimated
Mon 07:01:00 PM 1.5455 -69.9471 129° Southeast  Level Estimated
Mon 07:02:00 PM 1.4780 -69.8651 129° Southeast  Level Estimated
Mon 07:03:00 PM 1.4105 -69.7832 129° Southeast  Level Estimated
Mon 07:04:00 PM 1.3430 -69.7013 129° Southeast  Level Estimated
Mon 07:05:00 PM 1.2755 -69.6194 129° Southeast  Level Estimated
Mon 07:06:00 PM 1.2081 -69.5374 129° Southeast  Level Estimated
Mon 07:07:00 PM 1.1406 -69.4555 129° Southeast  Level Estimated
Mon 07:08:00 PM 1.0731 -69.3736 129° Southeast  Level Estimated
Mon 07:09:00 PM 1.0056 -69.2917 129° Southeast  Level Estimated
Mon 07:10:00 PM 0.9381 -69.2098 129° Southeast  Level Estimated
Mon 07:11:00 PM 0.8706 -69.1279 129° Southeast  Level Estimated
Mon 07:12:00 PM 0.8031 -69.0460 129° Southeast  Level Estimated
Mon 07:13:00 PM 0.7356 -68.9641 129° Southeast  Level Estimated
Mon 07:14:00 PM 0.6681 -68.8822 130° Southeast  Level Estimated
Mon 07:15:00 PM 0.6005 -68.8003 130° Southeast  Level Estimated
Mon 07:16:00 PM 0.5330 -68.7184 130° Southeast  Level Estimated
Mon 07:17:00 PM 0.4655 -68.6365 130° Southeast  Level Estimated
Mon 07:18:00 PM 0.3980 -68.5546 130° Southeast  Level Estimated
Mon 07:19:00 PM 0.3305 -68.4727 130° Southeast  Level Estimated
Mon 07:20:00 PM 0.2630 -68.3909 130° Southeast  Level Estimated
Mon 07:21:00 PM 0.1955 -68.3090 130° Southeast  Level Estimated
Mon 07:22:00 PM 0.1280 -68.2271 130° Southeast  Level Estimated
Mon 07:23:00 PM 0.0605 -68.1452 130° Southeast  Level Estimated
Mon 07:24:00 PM -0.0070 -68.0633 130° Southeast  Level Estimated
Mon 07:25:00 PM -0.0746 -67.9815 130° Southeast  Level Estimated
Mon 07:26:00 PM -0.1421 -67.8996 130° Southeast  Level Estimated
Mon 07:27:00 PM -0.2096 -67.8177 130° Southeast  Level Estimated
Mon 07:28:00 PM -0.2771 -67.7358 130° Southeast  Level Estimated
Mon 07:29:00 PM -0.3446 -67.6540 130° Southeast  Level Estimated
Mon 07:30:00 PM -0.4121 -67.5721 130° Southeast  Level Estimated
Mon 07:31:00 PM -0.4796 -67.4902 130° Southeast  Level Estimated
Mon 07:32:00 PM -0.5471 -67.4083 130° Southeast  Level Estimated
Mon 07:33:00 PM -0.6146 -67.3264 130° Southeast  Level Estimated
Mon 07:34:00 PM -0.6821 -67.2445 130° Southeast  Level Estimated
Mon 07:35:00 PM -0.7496 -67.1626 130° Southeast  Level Estimated
Mon 07:36:00 PM -0.8171 -67.0807 130° Southeast  Level Estimated
Mon 07:37:00 PM -0.8846 -66.9988 129° Southeast  Level Estimated
Mon 07:38:00 PM -0.9521 -66.9169 129° Southeast  Level Estimated
Mon 07:39:00 PM -1.0196 -66.8350 129° Southeast  Level Estimated
Mon 07:40:00 PM -1.0871 -66.7531 129° Southeast  Level Estimated
Mon 07:41:00 PM -1.1546 -66.6712 129° Southeast  Level Estimated
Mon 07:42:00 PM -1.2221 -66.5893 129° Southeast  Level Estimated
Mon 07:43:00 PM -1.2896 -66.5073 129° Southeast  Level Estimated
Mon 07:44:00 PM -1.3571 -66.4254 129° Southeast  Level Estimated
Mon 07:45:00 PM -1.4246 -66.3435 129° Southeast  Level Estimated
Mon 07:46:00 PM -1.4921 -66.2615 129° Southeast  Level Estimated
Mon 07:47:00 PM -1.5595 -66.1796 129° Southeast  Level Estimated
Mon 07:48:00 PM -1.6270 -66.0976 129° Southeast  Level Estimated
Mon 07:49:00 PM -1.6945 -66.0157 129° Southeast  Level Estimated
Mon 07:50:00 PM -1.7620 -65.9337 129° Southeast  Level Estimated
Mon 07:51:00 PM -1.8294 -65.8518 129° Southeast  Level Estimated
Mon 07:52:00 PM -1.8969 -65.7698 129° Southeast  Level Estimated
Mon 07:53:00 PM -1.9643 -65.6878 129° Southeast  Level Estimated
Mon 07:54:00 PM -2.0318 -65.6059 129° Southeast  Level Estimated
Mon 07:55:00 PM -2.0992 -65.5239 129° Southeast  Level Estimated
Mon 07:56:00 PM -2.1667 -65.4419 129° Southeast  Level Estimated
Mon 07:57:00 PM -2.2341 -65.3599 129° Southeast  Level Estimated
Mon 07:58:00 PM -2.3015 -65.2778 129° Southeast  Level Estimated
Mon 07:59:00 PM -2.3690 -65.1958 129° Southeast  Level Estimated
Mon 08:00:00 PM -2.4364 -65.1138 129° Southeast  Level Estimated
Mon 08:01:00 PM -2.5038 -65.0318 129° Southeast  Level Estimated
Mon 08:02:00 PM -2.5712 -64.9497 129° Southeast  Level Estimated
Mon 08:03:00 PM -2.6386 -64.8677 129° Southeast  Level Estimated
Mon 08:04:00 PM -2.7060 -64.7856 129° Southeast  Level Estimated
Mon 08:05:00 PM -2.7734 -64.7036 129° Southeast  Level Estimated
Mon 08:06:00 PM -2.8408 -64.6215 129° Southeast  Level Estimated
Mon 08:07:00 PM -2.9082 -64.5394 129° Southeast  Level Estimated
Mon 08:08:00 PM -2.9756 -64.4573 129° Southeast  Level Estimated
Mon 08:09:00 PM -3.0430 -64.3752 129° Southeast  Level Estimated
Mon 08:10:00 PM -3.1104 -64.2931 129° Southeast  Level Estimated
Mon 08:11:00 PM -3.1777 -64.2109 129° Southeast  Level Estimated
Mon 08:12:00 PM -3.2451 -64.1288 129° Southeast  Level Estimated
Mon 08:13:00 PM -3.3124 -64.0466 129° Southeast  Level Estimated
Mon 08:14:00 PM -3.3798 -63.9645 129° Southeast  Level Estimated
Mon 08:15:00 PM -3.4471 -63.8823 129° Southeast  Level Estimated
Mon 08:16:00 PM -3.5144 -63.8001 129° Southeast  Level Estimated
Mon 08:17:00 PM -3.5818 -63.7179 129° Southeast  Level Estimated
Mon 08:18:00 PM -3.6491 -63.6357 129° Southeast  Level Estimated
Mon 08:19:00 PM -3.7164 -63.5535 129° Southeast  Level Estimated
Mon 08:20:00 PM -3.7837 -63.4713 129° Southeast  Level Estimated
Mon 08:21:00 PM -3.8510 -63.3890 129° Southeast  Level Estimated
Mon 08:22:00 PM -3.9183 -63.3068 129° Southeast  Level Estimated
Mon 08:23:00 PM -3.9855 -63.2245 129° Southeast  Level Estimated
Mon 08:24:00 PM -4.0528 -63.1422 129° Southeast  Level Estimated
Mon 08:25:00 PM -4.1201 -63.0599 129° Southeast  Level Estimated
Mon 08:26:00 PM -4.1873 -62.9776 129° Southeast  Level Estimated
Mon 08:27:00 PM -4.2545 -62.8952 129° Southeast  Level Estimated
Mon 08:28:00 PM -4.3218 -62.8129 129° Southeast  Level Estimated
Mon 08:29:00 PM -4.3890 -62.7305 129° Southeast  Level Estimated
Mon 08:30:00 PM -4.4562 -62.6482 129° Southeast  Level Estimated
Mon 08:31:00 PM -4.5234 -62.5658 129° Southeast  Level Estimated
Mon 08:32:00 PM -4.5906 -62.4834 129° Southeast  Level Estimated
Mon 08:33:00 PM -4.6578 -62.4010 129° Southeast  Level Estimated
Mon 08:34:00 PM -4.7250 -62.3185 129° Southeast  Level Estimated
Mon 08:35:00 PM -4.7922 -62.2361 129° Southeast  Level Estimated
Mon 08:36:00 PM -4.8593 -62.1536 129° Southeast  Level Estimated
Mon 08:37:00 PM -4.9265 -62.0711 129° Southeast  Level Estimated
Mon 08:38:00 PM -4.9936 -61.9886 129° Southeast  Level Estimated
Mon 08:39:00 PM -5.0608 -61.9061 129° Southeast  Level Estimated
Mon 08:40:00 PM -5.1279 -61.8236 129° Southeast  Level Estimated
Mon 08:41:00 PM -5.1950 -61.7410 129° Southeast  Level Estimated
Mon 08:42:00 PM -5.2621 -61.6585 129° Southeast  Level Estimated
Mon 08:43:00 PM -5.3292 -61.5759 129° Southeast  Level Estimated
Mon 08:44:00 PM -5.3962 -61.4933 129° Southeast  Level Estimated
Mon 08:45:00 PM -5.4633 -61.4107 129° Southeast  Level Estimated
Mon 08:46:00 PM -5.5303 -61.3280 129° Southeast  Level Estimated
Mon 08:47:00 PM -5.5974 -61.2454 129° Southeast  Level Estimated
Mon 08:48:00 PM -5.6644 -61.1627 129° Southeast  Level Estimated
Mon 08:49:00 PM -5.7314 -61.0800 129° Southeast  Level Estimated
Mon 08:50:00 PM -5.7984 -60.9973 129° Southeast  Level Estimated
Mon 08:51:00 PM -5.8654 -60.9145 129° Southeast  Level Estimated
Mon 08:52:00 PM -5.9324 -60.8318 129° Southeast  Level Estimated
Mon 08:53:00 PM -5.9994 -60.7490 129° Southeast  Level Estimated
Mon 08:54:00 PM -6.0663 -60.6662 129° Southeast  Level Estimated
Mon 08:55:00 PM -6.1333 -60.5834 129° Southeast  Level Estimated
Mon 08:56:00 PM -6.2002 -60.5005 129° Southeast  Level Estimated
Mon 08:57:00 PM -6.2671 -60.4177 129° Southeast  Level Estimated
Mon 08:58:00 PM -6.3340 -60.3348 129° Southeast  Level Estimated
Mon 08:59:00 PM -6.4009 -60.2519 129° Southeast  Level Estimated
Mon 09:00:00 PM -6.4678 -60.1690 129° Southeast  Level Estimated
Mon 09:01:00 PM -6.5346 -60.0860 129° Southeast  Level Estimated
Mon 09:02:00 PM -6.6015 -60.0030 129° Southeast  Level Estimated
Mon 09:03:00 PM -6.6683 -59.9201 129° Southeast  Level Estimated
Mon 09:04:00 PM -6.7352 -59.8370 129° Southeast  Level Estimated
Mon 09:05:00 PM -6.8020 -59.7540 129° Southeast  Level Estimated
Mon 09:06:00 PM -6.8688 -59.6709 129° Southeast  Level Estimated
Mon 09:07:00 PM -6.9356 -59.5879 129° Southeast  Level Estimated
Mon 09:08:00 PM -7.0023 -59.5047 129° Southeast  Level Estimated
Mon 09:09:00 PM -7.0691 -59.4216 129° Southeast  Level Estimated
Mon 09:10:00 PM -7.1358 -59.3385 129° Southeast  Level Estimated
Mon 09:11:00 PM -7.2025 -59.2553 129° Southeast  Level Estimated
Mon 09:12:00 PM -7.2692 -59.1721 129° Southeast  Level Estimated
Mon 09:13:00 PM -7.3359 -59.0889 129° Southeast  Level Estimated
Mon 09:14:00 PM -7.4026 -59.0056 129° Southeast  Level Estimated
Mon 09:15:00 PM -7.4693 -58.9223 129° Southeast  Level Estimated
Mon 09:16:00 PM -7.5359 -58.8390 129° Southeast  Level Estimated
Mon 09:17:00 PM -7.6026 -58.7557 129° Southeast  Level Estimated
Mon 09:18:00 PM -7.6692 -58.6724 129° Southeast  Level Estimated
Mon 09:19:00 PM -7.7358 -58.5890 129° Southeast  Level Estimated
Mon 09:20:00 PM -7.8023 -58.5056 129° Southeast  Level Estimated
Mon 09:21:00 PM -7.8689 -58.4221 129° Southeast  Level Estimated
Mon 09:22:00 PM -7.9355 -58.3387 129° Southeast  Level Estimated
Mon 09:23:00 PM -8.0020 -58.2552 129° Southeast  Level Estimated
Mon 09:24:00 PM -8.0685 -58.1717 129° Southeast  Level Estimated
Mon 09:25:00 PM -8.1350 -58.0881 129° Southeast  Level Estimated
Mon 09:26:00 PM -8.2015 -58.0046 129° Southeast  Level Estimated
Mon 09:27:00 PM -8.2680 -57.9210 129° Southeast  Level Estimated
Mon 09:28:00 PM -8.3344 -57.8373 129° Southeast  Level Estimated
Mon 09:29:00 PM -8.4008 -57.7537 129° Southeast  Level Estimated
Mon 09:30:00 PM -8.4672 -57.6700 129° Southeast  Level Estimated
Mon 09:31:00 PM -8.5336 -57.5863 129° Southeast  Level Estimated
Mon 09:32:00 PM -8.6000 -57.5025 129° Southeast  Level Estimated
Mon 09:33:00 PM -8.6664 -57.4188 129° Southeast  Level Estimated
Mon 09:34:00 PM -8.7327 -57.3350 129° Southeast  Level Estimated
Mon 09:35:00 PM -8.7990 -57.2511 129° Southeast  Level Estimated
Mon 09:36:00 PM -8.8653 -57.1673 129° Southeast  Level Estimated
Mon 09:37:00 PM -8.9316 -57.0834 129° Southeast  Level Estimated
Mon 09:38:00 PM -8.9979 -56.9995 129° Southeast  Level Estimated
Mon 09:39:00 PM -9.0641 -56.9155 129° Southeast  Level Estimated
Mon 09:40:00 PM -9.1304 -56.8316 129° Southeast  Level Estimated
Mon 09:41:00 PM -9.1966 -56.7475 129° Southeast  Level Estimated
Mon 09:42:00 PM -9.2628 -56.6635 129° Southeast  Level Estimated
Mon 09:43:00 PM -9.3289 -56.5794 129° Southeast  Level Estimated
Mon 09:44:00 PM -9.3951 -56.4953 129° Southeast  Level Estimated
Mon 09:45:00 PM -9.4612 -56.4112 129° Southeast  Level Estimated
Mon 09:46:00 PM -9.5273 -56.3270 129° Southeast  Level Estimated
Mon 09:47:00 PM -9.5934 -56.2428 129° Southeast  Level Estimated
Mon 09:48:00 PM -9.6595 -56.1586 129° Southeast  Level Estimated
Mon 09:49:00 PM -9.7255 -56.0743 128° Southeast  Level Estimated
Mon 09:50:00 PM -9.7916 -55.9900 128° Southeast  Level Estimated
Mon 09:51:00 PM -9.8576 -55.9057 128° Southeast  Level Estimated
Mon 09:52:00 PM -9.9236 -55.8213 128° Southeast  Level Estimated
Mon 09:53:00 PM -9.9895 -55.7369 128° Southeast  Level Estimated
Mon 09:54:00 PM -10.0555 -55.6524 128° Southeast  Level Estimated
Mon 09:55:00 PM -10.1214 -55.5680 128° Southeast  Level Estimated
Mon 09:56:00 PM -10.1873 -55.4835 128° Southeast  Level Estimated
Mon 09:57:00 PM -10.2532 -55.3989 128° Southeast  Level Estimated
Mon 09:58:00 PM -10.3190 -55.3143 128° Southeast  Level Estimated
Mon 09:59:00 PM -10.3848 -55.2297 128° Southeast  Level Estimated
Mon 10:00:00 PM -10.4507 -55.1451 128° Southeast  Level Estimated
Mon 10:01:00 PM -10.5164 -55.0604 128° Southeast  Level Estimated
Mon 10:02:00 PM -10.5822 -54.9757 128° Southeast  Level Estimated
Mon 10:03:00 PM -10.6480 -54.8909 128° Southeast  Level Estimated
Mon 10:04:00 PM -10.7137 -54.8061 128° Southeast  Level Estimated
Mon 10:05:00 PM -10.7794 -54.7213 128° Southeast  Level Estimated
Mon 10:06:00 PM -10.8451 -54.6364 128° Southeast  Level Estimated
Mon 10:07:00 PM -10.9107 -54.5515 128° Southeast  Level Estimated
Mon 10:08:00 PM -10.9763 -54.4666 128° Southeast  Level Estimated
Mon 10:09:00 PM -11.0420 -54.3816 128° Southeast  Level Estimated
Mon 10:10:00 PM -11.1075 -54.2966 128° Southeast  Level Estimated
Mon 10:11:00 PM -11.1731 -54.2115 128° Southeast  Level Estimated
Mon 10:12:00 PM -11.2386 -54.1264 128° Southeast  Level Estimated
Mon 10:13:00 PM -11.3041 -54.0413 128° Southeast  Level Estimated
Mon 10:14:00 PM -11.3696 -53.9561 128° Southeast  Level Estimated
Mon 10:15:00 PM -11.4351 -53.8709 128° Southeast  Level Estimated
Mon 10:16:00 PM -11.5005 -53.7856 128° Southeast  Level Estimated
Mon 10:17:00 PM -11.5659 -53.7004 128° Southeast  Level Estimated
Mon 10:18:00 PM -11.6313 -53.6150 128° Southeast  Level Estimated
Mon 10:19:00 PM -11.6967 -53.5297 128° Southeast  Level Estimated
Mon 10:20:00 PM -11.7620 -53.4442 128° Southeast  Level Estimated
Mon 10:21:00 PM -11.8273 -53.3588 128° Southeast  Level Estimated
Mon 10:22:00 PM -11.8926 -53.2733 128° Southeast  Level Estimated
Mon 10:23:00 PM -11.9579 -53.1878 128° Southeast  Level Estimated
Mon 10:24:00 PM -12.0231 -53.1022 128° Southeast  Level Estimated
Mon 10:25:00 PM -12.0883 -53.0166 128° Southeast  Level Estimated
Mon 10:26:00 PM -12.1535 -52.9309 128° Southeast  Level Estimated
Mon 10:26:02 PM -15.2350 -48.9170 128° Southeast 373 429 22,600  Level FlightAware ADS-B
Mon 10:26:42 PM -15.2690 -48.8680 126° Southeast 373 429 22,600 -2,329 Level FlightAware ADS-B
Mon 10:27:27 PM -15.3220 -48.7930 126° Southeast 350 403 19,300 -3,106 Descending FlightAware ADS-B
Mon 10:28:07 PM -15.3610 -48.7380 126° Southeast 343 395 18,200 -1,650 Descending FlightAware ADS-B
Mon 10:28:47 PM -15.3990 -48.6860 127° Southeast 336 387 17,100 -1,694 Descending FlightAware ADS-B
Mon 10:29:32 PM -15.4400 -48.6270 126° Southeast 328 377 15,800 -1,624 Descending FlightAware ADS-B
Mon 10:30:12 PM -15.4760 -48.5770 127° Southeast 319 367 14,800 -1,553 Descending FlightAware ADS-B
Mon 10:30:57 PM -15.5150 -48.5220 126° Southeast 311 358 13,600 -1,271 Descending FlightAware ADS-B
Mon 10:31:37 PM -15.5480 -48.4750 126° Southeast 292 336 13,000 -750 Descending FlightAware ADS-B
Mon 10:32:17 PM -15.5780 -48.4320 126° Southeast 267 307 12,600 -706 Descending FlightAware ADS-B
Mon 10:33:02 PM -15.6100 -48.3870 126° Southeast 254 292 12,000 -988 Descending FlightAware ADS-B
Mon 10:33:42 PM -15.6380 -48.3480 127° Southeast 251 289 11,200 -1,129 Descending FlightAware ADS-B
Mon 10:34:27 PM -15.6680 -48.3050 126° Southeast 248 285 10,400 -1,114 Descending FlightAware ADS-B
Mon 10:34:52 PM -15.6850 -48.2810 126° Southeast 247 284 9,900 -1,200 Descending FlightAware ADS-B
Mon 10:35:22 PM -15.7060 -48.2510 126° Southeast 245 282 9,300 -1,100 Descending FlightAware ADS-B
Mon 10:35:52 PM -15.7250 -48.2230 125° Southeast 243 280 8,800 -1,080 Descending FlightAware ADS-B
Mon 10:36:12 PM -15.7400 -48.2030 128° Southeast 243 280 8,400 -982 Descending FlightAware ADS-B
Mon 10:36:47 PM -15.7580 -48.1770 126° Southeast 240 276 7,900 -1,200 Descending FlightAware ADS-B
Mon 10:37:12 PM -15.7780 -48.1500 128° Southeast 242 278 7,200 -1,650 Descending FlightAware ADS-B
Mon 10:37:27 PM -15.7920 -48.1390 143° Southeast 237 273 6,800 -1,500 Descending FlightAware ADS-B
Mon 10:37:52 PM -15.8160 -48.1290 158° South 232 267 6,200 -1,418 Descending FlightAware ADS-B
Mon 10:38:22 PM -15.8470 -48.1180 161° South 228 262 5,500 -1,100 Descending FlightAware ADS-B
Mon 10:38:52 PM -15.8710 -48.1040 151° Southeast 206 237 5,100 -600 Descending FlightAware ADS-B
Mon 10:39:02 PM -15.8750 -48.0950 115° Southeast 185 213 5,100  Level FlightAware ADS-B
Mon 10:39:27 PM -15.8730 -48.0760 84° East 180 207 5,100  Level FlightAware ADS-B
Mon 10:42:00 PM -15.8626 -47.9127 86° East  Level Estimated
Mon 10:43:00 PM -15.8626 -47.9127 128° Southeast  Level Estimated
Mon 10:46:00 PM -15.8626 -47.9127 268° West  Level Estimated
Mon 10:47:00 PM -15.8626 -47.9127 128° Southeast  Level Estimated
Mon 10:48:00 PM -15.8626 -47.9127 128° Southeast  Level Estimated
Mon 10:49:00 PM -15.8626 -47.9127 128° Southeast  Level Estimated
Mon 10:50:00 PM -15.8626 -47.9127 128° Southeast  Level Estimated
Mon 10:51:00 PM -15.8626 -47.9127 128° Southeast  Level Estimated
Mon 10:52:00 PM -15.8626 -47.9127 128° Southeast  Level Estimated
Mon 10:53:00 PM -15.8626 -47.9127 128° Southeast  Level Estimated
Mon 10:54:00 PM -15.8626 -47.9127 128° Southeast  Level Estimated
Mon 10:55:00 PM -15.8626 -47.9127 128° Southeast  Level Estimated
Mon 10:56:00 PM -15.8626 -47.9127 128° Southeast  Level Estimated
Mon 10:57:00 PM -15.8626 -47.9127 128° Southeast  Level Estimated
Mon 10:58:00 PM -15.8626 -47.9127 128° Southeast  Level Estimated
Mon 10:59:00 PM -15.8626 -47.9127 128° Southeast  Level Estimated
Mon 11:00:00 PM -15.8626 -47.9127 128° Southeast  Level Estimated
Mon 11:01:00 PM -15.8626 -47.9127 128° Southeast  Level Estimated
Mon 11:02:00 PM -15.8626 -47.9127 128° Southeast  Level Estimated
Mon 11:03:00 PM -15.8626 -47.9127 128° Southeast  Level Estimated
Mon 11:04:00 PM -15.8626 -47.9127 128° Southeast  Level Estimated
Mon 11:05:00 PM -15.8626 -47.9127 128° Southeast  Level Estimated
Mon 11:06:00 PM -15.8626 -47.9127 128° Southeast  Level Estimated

Login

Don't have an account? Register now (free) for customized features, flight alerts, and more!